Portland-Hillsboro, OR

2:14 AM PST on December 28, 2014 (GMT -0800)
Scappoose Industrial | Change Station
CLOSE
Current Station
Airport
Location: Scappoose,
Elevation: 56 ft
Nearby Weather Stations
Active Advisory: Special Statement

Elev 56 ft 45.77 °N, 122.86 °W | Updated 21 minutes ago

Overcast
Overcast
44 °F
Feels Like 39 °F
N
9
Wind Variable Wind from West

Today
High -- | Low -- °F
--% Chance of Precip.
Yesterday
High -- | Low -- °F
Precip. -- in
7:51 AM 4:35 PM
Waxing Crescent, 46% visible
Pressure 30.20 in
Visibility 8.0 miles
Clouds Mostly Cloudy 3800 ft
Overcast 10000 ft
Windchill 39 °F
Dew Point 39 °F
Humidity 82%
Rainfall 0.05 in
Snow Depth Not available.
UV 0 out of 12
Pollen .20 out of 12
Air Quality Not available.
Flu Activity Not available.
METAR KSPB 280953Z AUTO 27008KT 8SM -RA BKN038 OVC100 07/04 A3020 RMK AO2 SLP227 P0003 T00670039

More Conditions Fewer Conditions

Pressure 30.20 in
Visibility 8.0 miles
Clouds Mostly Cloudy 3800 ft
Overcast 10000 ft
Windchill 39 °F
Dew Point 39 °F
Humidity 82%
Rainfall 0.05 in
Snow Depth Not available.
UV 0 out of 12
Pollen .20 out of 12
Air Quality Not available.
Flu Activity Not available.
METAR KSPB 280953Z AUTO 27008KT 8SM -RA BKN038 OVC100 07/04 A3020 RMK AO2 SLP227 P0003 T00670039

More Conditions Fewer Conditions

10-Day Weather Forecast

Almanac

Astronomy

Dec. 28, 2014 Rise Set
Actual Time
Civil Twilight
Nautical Twilight
Astronomical Twilight
Moon
Length of Visible Light
Length of Day
Tomorrow will be .
, % of the Moon is Illuminated

Today's Extremes

State Highs State Lows

Community

WunderPhotos

Upload Photos

1,781,207 photos uploaded!

WunderBlogs® & News

Nearby

Air Quality

  Air Quality AQ Index Pollutant
Not available.

Snow Depth

Station Depth Elevation

Earthquake Activity

City Distance Mag. Time & Date
Minimum magnitude displayed is 2.5.

Coastal Water Temperatures

Place Temperature

Nearby Weather Stations